Time;durP1;ratioP1;P1;durP2;ratioP2;P2;SDS_P1;SDS_P2;PMS_P1;PMS_P2;Temp;Humidity;BMP_temperature;BMP_pressure;BME280_temperature;BME280_humidity;BME280_pressure;Samples;Min_cycle;Max_cycle;Signal;HPM_P1;HPM_P2
2022/01/20 00:04:12;;;;;;;7.08;5.67;;;;;;;1.08;90.78;97985.41;1779250;78;21117;-86
2022/01/20 00:07:11;;;;;;;5.45;4.80;;;;;;;1.10;90.82;97986.20;1787886;78;20954;-85
2022/01/20 00:28:12;;;;;;;3.95;3.22;;;;;;;1.40;90.81;97929.38;1729880;81;21015;-83
2022/01/20 00:30:54;;;;;;;4.62;3.47;;;;;;;1.38;90.78;97933.73;1717765;81;21198;-86
2022/01/20 00:33:33;;;;;;;3.90;3.20;;;;;;;1.34;90.81;97927.89;1721320;81;21135;-86
2022/01/20 00:38:22;;;;;;;5.87;4.75;;;;;;;1.34;90.92;97919.30;1722377;81;21131;-85
2022/01/20 00:40:49;;;;;;;7.30;4.22;;;;;;;1.33;90.91;97909.93;1718576;81;21115;-85
2022/01/20 00:43:16;;;;;;;6.87;3.95;;;;;;;1.32;90.95;97915.98;1719623;81;21081;-85
2022/01/20 00:45:42;;;;;;;6.20;4.12;;;;;;;1.32;90.99;97913.41;1714345;81;21055;-86
2022/01/20 00:48:09;;;;;;;5.03;4.08;;;;;;;1.34;91.02;97907.73;1717565;81;21552;-85
2022/01/20 00:50:36;;;;;;;6.83;4.00;;;;;;;1.37;90.99;97910.64;1752041;80;21829;-85
2022/01/20 00:53:03;;;;;;;5.17;3.92;;;;;;;1.37;90.98;97893.47;1763792;79;21057;-85
2022/01/20 00:55:31;;;;;;;7.62;4.30;;;;;;;1.37;90.98;97893.47;1758881;79;21086;-85
2022/01/20 00:57:58;;;;;;;8.68;3.75;;;;;;;1.38;91.04;97915.73;1765439;80;21086;-86
2022/01/20 01:00:31;;;;;;;12.25;4.33;;;;;;;1.37;90.98;97898.61;1762531;79;21604;-85
2022/01/20 01:02:57;;;;;;;9.68;4.08;;;;;;;1.36;90.98;97881.52;1763335;80;21036;-86
2022/01/20 01:05:26;;;;;;;9.73;3.52;;;;;;;1.36;90.92;97902.09;1764138;80;21499;-85
2022/01/20 01:07:55;;;;;;;10.75;3.67;;;;;;;1.35;90.83;97895.28;1764470;80;21096;-84
2022/01/20 01:10:27;;;;;;;11.93;3.27;;;;;;;1.33;90.71;97889.36;1759166;80;21084;-85
2022/01/20 01:15:31;;;;;;;12.85;3.20;;;;;;;1.22;90.51;97894.08;1767731;79;21516;-85
2022/01/20 01:23:37;;;;;;;16.93;3.92;;;;;;;1.09;90.45;97902.70;1766605;79;21014;-84
2022/01/20 01:26:07;;;;;;;13.60;3.95;;;;;;;1.09;90.48;97878.28;1765733;80;21037;-78
2022/01/20 01:28:34;;;;;;;11.90;3.12;;;;;;;1.09;90.38;97883.00;1770543;80;22250;-85
2022/01/20 01:33:30;;;;;;;13.08;2.55;;;;;;;1.05;90.31;97867.29;1775460;79;21541;-85
2022/01/20 01:35:58;;;;;;;8.93;2.75;;;;;;;1.05;90.27;97864.72;1776010;79;21013;-85
2022/01/20 01:38:36;;;;;;;11.88;2.62;;;;;;;1.03;90.00;97858.79;1775253;80;21084;-84
2022/01/20 01:40:54;;;;;;;12.80;2.77;;;;;;;1.00;89.86;97849.92;1771453;79;21497;-84
2022/01/20 01:43:25;;;;;;;9.40;2.40;;;;;;;0.98;89.60;97858.16;1770947;80;21105;-85
2022/01/20 01:45:53;;;;;;;7.62;2.20;;;;;;;0.98;89.61;97842.73;1775041;79;21944;-84
2022/01/20 01:48:19;;;;;;;11.12;2.25;;;;;;;0.97;89.42;97842.33;1766195;80;21517;-84
2022/01/20 01:50:46;;;;;;;10.38;2.05;;;;;;;0.97;89.38;97848.75;1766487;79;20994;-84
2022/01/20 01:53:14;;;;;;;12.33;2.47;;;;;;;0.97;89.27;97856.47;1772729;80;21127;-84
2022/01/20 01:55:41;;;;;;;9.43;2.15;;;;;;;0.96;89.11;97854.80;1780210;78;21612;-84
2022/01/20 01:58:08;;;;;;;7.72;2.12;;;;;;;0.95;89.00;97845.40;1777202;78;21103;-83
2022/01/20 02:00:35;;;;;;;;;;;;;;;0.95;88.78;97842.83;1774069;80;20993;-83
2022/01/20 02:03:02;;;;;;;13.80;2.50;;;;;;;0.95;88.66;97831.72;1778866;78;20098;-84
2022/01/20 02:05:31;;;;;;;10.32;1.95;;;;;;;0.93;88.71;97824.09;1783330;80;21010;-84
2022/01/20 02:18:54;;;;;;;9.48;2.30;;;;;;;0.76;88.15;97820.87;1674583;84;21036;-84
2022/01/20 02:21:21;;;;;;;11.20;1.77;;;;;;;0.77;88.05;97820.42;1672267;84;21065;-83
2022/01/20 02:23:48;;;;;;;8.05;1.90;;;;;;;0.75;88.06;97832.48;1674030;84;21164;-83
2022/01/20 02:26:16;;;;;;;10.30;2.60;;;;;;;0.76;87.85;97818.77;1672602;84;21088;-83
2022/01/20 02:28:45;;;;;;;9.60;2.87;;;;;;;0.76;88.03;97816.20;1673567;84;21025;-83
2022/01/20 02:31:12;;;;;;;14.87;2.65;;;;;;;0.78;87.96;97811.81;1675679;84;21131;-84
2022/01/20 02:33:38;;;;;;;14.07;2.42;;;;;;;0.77;87.75;97824.28;1674701;84;21556;-84
2022/01/20 02:36:12;;;;;;;9.28;2.20;;;;;;;0.77;87.64;97817.86;1672015;84;21332;-84
2022/01/20 02:38:45;;;;;;;13.95;2.08;;;;;;;0.77;87.52;97820.42;1670532;84;21118;-83
2022/01/20 02:46:38;;;;;;;10.80;1.67;;;;;;;0.79;87.36;97823.78;1702014;82;21141;-83
2022/01/20 02:49:07;;;;;;;;;;;;;;;0.80;87.39;97816.45;1738342;81;21098;-84
2022/01/20 02:51:35;;;;;;;10.05;2.12;;;;;;;0.80;87.13;97805.72;1731669;81;20201;-83
2022/01/20 02:54:02;;;;;;;11.12;2.70;;;;;;;0.80;86.93;97776.63;1733542;81;21005;-83
2022/01/20 02:56:29;;;;;;;10.23;2.67;;;;;;;0.81;87.06;97806.55;1734507;82;21142;-83
2022/01/20 02:58:55;;;;;;;10.85;2.08;;;;;;;0.81;86.84;97806.55;1729833;81;21091;-83
2022/01/20 03:01:22;;;;;;;9.75;1.65;;;;;;;0.81;86.92;97801.41;1735697;82;21075;-84
2022/01/20 03:03:49;;;;;;;13.32;2.15;;;;;;;0.80;86.66;97792.05;1730288;82;21597;-83
2022/01/20 03:06:16;;;;;;;12.43;1.90;;;;;;;0.76;86.71;97800.78;1732843;81;26987;-84
2022/01/20 03:08:42;;;;;;;13.05;2.62;;;;;;;0.73;86.68;97806.01;1728753;81;21013;-84
2022/01/20 03:11:09;;;;;;;14.87;2.42;;;;;;;0.69;86.64;97795.02;1730919;82;21082;-84
2022/01/20 03:13:36;;;;;;;13.48;1.92;;;;;;;0.66;86.70;97812.67;1736315;81;21819;-84
2022/01/20 03:16:02;;;;;;;10.80;2.15;;;;;;;0.58;86.74;97819.82;1743249;80;20965;-83
2022/01/20 03:18:29;;;;;;;13.53;2.72;;;;;;;0.37;87.54;97842.45;1732324;81;21304;-83
2022/01/20 03:20:55;;;;;;;12.18;2.52;;;;;;;0.17;87.51;97831.17;1732918;81;21720;-84
2022/01/20 03:23:22;;;;;;;12.70;2.52;;;;;;;0.03;87.45;97818.00;1744074;80;21002;-84
2022/01/20 03:25:48;;;;;;;17.12;2.40;;;;;;;-0.07;87.58;97817.91;1735522;81;21062;-83
2022/01/20 03:28:15;;;;;;;20.48;3.27;;;;;;;-0.14;87.59;97823.72;1734742;81;21034;-83
2022/01/20 03:30:41;;;;;;;11.53;1.98;;;;;;;-0.16;87.63;97819.53;1740219;81;21695;-84
2022/01/20 03:33:08;;;;;;;13.03;2.70;;;;;;;-0.18;87.60;97821.30;1740066;81;21142;-84
2022/01/20 03:35:36;;;;;;;9.58;1.87;;;;;;;-0.19;87.50;97815.78;1741623;80;21613;-84
2022/01/20 03:38:09;;;;;;;;;;;;;;;-0.18;87.39;97816.17;1749094;81;22408;-83
2022/01/20 03:40:36;;;;;;;9.88;2.12;;;;;;;-0.17;87.33;97824.24;1738239;81;20078;-84
2022/01/20 03:43:04;;;;;;;10.65;1.95;;;;;;;-0.18;87.30;97813.16;1735680;81;21091;-83
2022/01/20 03:45:30;;;;;;;13.83;2.60;;;;;;;-0.17;87.25;97805.00;1740405;81;20984;-81
2022/01/20 03:48:06;;;;;;;12.30;2.67;;;;;;;-0.15;87.22;97811.77;1740600;80;20950;-82
2022/01/20 03:51:08;;;;;;;14.13;2.85;;;;;;;-0.13;87.19;97799.73;1738242;81;21123;-83
2022/01/20 03:52:57;;;;;;;10.50;1.92;;;;;;;-0.08;87.20;97803.42;1717707;81;21011;-83
2022/01/20 03:55:24;;;;;;;12.07;1.65;;;;;;;-0.07;87.09;97780.72;1737525;81;21031;-84
2022/01/20 03:57:50;;;;;;;8.57;2.23;;;;;;;-0.10;86.98;97802.63;1733052;81;21066;-83
2022/01/20 04:00:17;;;;;;;13.13;2.40;;;;;;;-0.13;86.99;97788.64;1740744;80;20971;-84
2022/01/20 04:02:44;;;;;;;11.00;1.90;;;;;;;-0.14;86.98;97796.78;1737038;81;21070;-84
2022/01/20 04:05:10;;;;;;;7.87;1.70;;;;;;;-0.15;86.99;97805.80;1741535;81;21113;-84
2022/01/20 04:07:37;;;;;;;12.65;2.37;;;;;;;-0.18;86.98;97803.34;1734833;81;20929;-83
2022/01/20 04:10:08;;;;;;;7.83;2.00;;;;;;;-0.20;86.97;97802.55;1738202;81;21007;-84
2022/01/20 04:12:35;;;;;;;9.30;2.08;;;;;;;-0.23;86.96;97799.19;1753543;79;21057;-83
2022/01/20 04:15:07;;;;;;;11.75;2.05;;;;;;;-0.24;86.99;97789.84;1772644;79;21111;-84
2022/01/20 04:17:39;;;;;;;8.13;1.80;;;;;;;-0.26;87.04;97786.48;1766331;79;21019;-83
2022/01/20 04:20:09;;;;;;;12.40;2.12;;;;;;;-0.27;86.98;97781.42;1765786;80;20982;-83
2022/01/20 04:22:36;;;;;;;10.23;2.15;;;;;;;-0.26;86.99;97775.39;1741368;80;20996;-84
2022/01/20 04:25:04;;;;;;;10.43;1.97;;;;;;;-0.26;86.96;97777.95;1765586;79;21087;-84
2022/01/20 04:27:30;;;;;;;6.72;2.05;;;;;;;-0.27;86.96;97789.94;1771103;79;21071;-84
2022/01/20 04:29:57;;;;;;;12.90;2.35;;;;;;;-0.28;86.97;97770.33;1742940;80;21004;-83
2022/01/20 04:32:24;;;;;;;6.65;2.17;;;;;;;-0.29;86.89;97771.20;1771268;80;20985;-83
2022/01/20 04:34:51;;;;;;;6.85;2.10;;;;;;;-0.33;86.87;97779.91;1774826;79;21002;-83
2022/01/20 04:37:18;;;;;;;11.57;2.10;;;;;;;-0.37;86.89;97789.86;1776098;79;21007;-84
2022/01/20 04:39:48;;;;;;;8.08;1.82;;;;;;;-0.40;86.93;97789.97;1771143;80;21886;-83
2022/01/20 04:42:13;;;;;;;8.75;1.65;;;;;;;-0.42;86.94;97796.89;1773615;79;20921;-84
2022/01/20 04:44:47;;;;;;;11.37;1.60;;;;;;;-0.45;87.01;97788.00;1769925;79;21016;-84
2022/01/20 04:57:59;;;;;;;11.08;2.47;;;;;;;-0.47;87.12;97806.46;1775739;80;21009;-83
2022/01/20 05:00:26;;;;;;;11.33;2.10;;;;;;;-0.47;87.13;97797.48;1772826;79;20986;-84
2022/01/20 05:02:52;;;;;;;10.28;1.90;;;;;;;-0.47;87.15;97789.34;1773824;79;21527;-84
2022/01/20 05:05:19;;;;;;;10.17;2.00;;;;;;;-0.46;87.08;97776.08;1774300;79;21063;-83
2022/01/20 05:07:46;;;;;;;7.80;1.82;;;;;;;-0.46;87.05;97783.77;1770531;80;20954;-83
2022/01/20 05:10:13;;;;;;;11.18;1.90;;;;;;;-0.47;87.03;97789.80;1771015;79;21010;-84
2022/01/20 05:13:04;;;;;;;7.53;1.82;;;;;;;-0.47;87.04;97797.48;1773505;80;20958;-84
2022/01/20 05:15:18;;;;;;;13.28;2.08;;;;;;;-0.46;86.96;97791.45;1769914;79;20903;-85
2022/01/20 05:17:44;;;;;;;12.43;1.82;;;;;;;-0.46;86.98;97796.59;1774363;80;21953;-84
2022/01/20 05:20:11;;;;;;;7.97;2.58;;;;;;;-0.44;87.04;97805.08;1773779;80;20961;-84
2022/01/20 05:22:38;;;;;;;6.50;1.92;;;;;;;-0.41;87.07;97801.13;1769507;79;21714;-84
2022/01/20 05:25:06;;;;;;;9.55;1.87;;;;;;;-0.37;87.03;97800.56;1766940;79;21010;-83
2022/01/20 05:27:34;;;;;;;8.43;1.77;;;;;;;-0.35;87.04;97786.80;1734361;80;21018;-85
2022/01/20 05:30:01;;;;;;;9.93;2.08;;;;;;;-0.36;86.91;97795.40;1769714;79;21289;-85
2022/01/20 05:32:28;;;;;;;11.33;2.90;;;;;;;-0.39;86.91;97794.22;1742039;80;21117;-83
2022/01/20 05:34:55;;;;;;;12.78;2.87;;;;;;;-0.42;86.88;97795.61;1773669;79;21025;-84
2022/01/20 05:37:22;;;;;;;7.67;2.92;;;;;;;-0.45;86.89;97799.53;1765071;79;21008;-84
2022/01/20 05:39:48;;;;;;;9.40;3.27;;;;;;;-0.47;86.93;97794.92;1768366;79;20972;-85
2022/01/20 05:42:15;;;;;;;6.80;2.08;;;;;;;-0.48;86.95;97791.53;1768695;80;21743;-85
2022/01/20 05:44:44;;;;;;;9.73;3.42;;;;;;;-0.48;86.90;97780.41;1765804;80;21580;-83
2022/01/20 05:47:12;;;;;;;9.95;2.37;;;;;;;-0.50;86.91;97792.47;1770512;80;21527;-83
2022/01/20 05:49:38;;;;;;;6.58;2.10;;;;;;;-0.53;86.96;97775.45;1772160;79;21088;-83
2022/01/20 05:52:06;;;;;;;6.97;1.80;;;;;;;-0.54;86.93;97785.75;1743450;80;21028;-84
2022/01/20 05:54:32;;;;;;;8.90;2.62;;;;;;;-0.56;87.01;97787.52;1772404;79;21135;-84
2022/01/20 05:56:59;;;;;;;4.92;1.85;;;;;;;-0.61;87.01;97809.92;1773590;79;21008;-84
2022/01/20 05:59:25;;;;;;;2.62;1.07;;;;;;;-0.65;87.16;97822.44;1772307;79;20992;-79
2022/01/20 06:01:56;;;;;;;4.23;1.20;;;;;;;-0.98;88.07;97826.45;1768110;80;21678;-84
2022/01/20 06:04:23;;;;;;;4.85;0.33;;;;;;;-0.98;88.07;97826.45;1767805;79;21017;-81
2022/01/20 06:06:50;;;;;;;1.85;0.72;;;;;;;-1.15;89.84;97844.48;1765710;79;21570;-83
2022/01/20 06:09:17;;;;;;;1.50;0.60;;;;;;;-1.25;90.89;97849.47;1768445;79;21046;-84
2022/01/20 06:11:44;;;;;;;1.35;0.53;;;;;;;-1.36;91.92;97843.83;1761323;80;27257;-84
2022/01/20 06:14:10;;;;;;;0.90;0.30;;;;;;;-1.45;91.87;97836.42;1753666;79;21508;-83
2022/01/20 06:16:38;;;;;;;0.60;0.20;;;;;;;-1.47;91.73;97833.90;1747933;80;21020;-83
2022/01/20 06:19:05;;;;;;;2.62;0.55;;;;;;;-1.52;91.53;97843.87;1758234;80;21100;-85
2022/01/20 06:21:32;;;;;;;1.47;0.60;;;;;;;-1.58;91.32;97815.01;1760258;80;21565;-83
2022/01/20 06:23:59;;;;;;;0.50;0.40;;;;;;;-1.64;91.67;97821.59;1762164;80;20957;-84
2022/01/20 06:26:25;;;;;;;1.10;0.55;;;;;;;-1.74;92.74;97817.61;1756798;80;21065;-84
2022/01/20 06:28:52;;;;;;;2.00;0.50;;;;;;;-1.82;93.12;97829.77;1763016;79;20960;-83
2022/01/20 06:31:18;;;;;;;1.00;0.50;;;;;;;-1.90;93.26;97824.05;1754718;79;22342;-83
2022/01/20 06:33:47;;;;;;;1.92;0.80;;;;;;;-1.89;92.73;97823.16;1750031;80;21051;-83
2022/01/20 06:36:13;;;;;;;0.95;0.57;;;;;;;-1.95;92.46;97828.45;1725606;80;21068;-83
2022/01/20 06:38:44;;;;;;;1.15;0.80;;;;;;;-1.97;91.98;97846.38;1752544;80;21190;-83
2022/01/20 06:41:11;;;;;;;1.02;0.30;;;;;;;-1.99;91.81;97840.91;1725443;80;20967;-83
2022/01/20 06:43:37;;;;;;;1.32;0.62;;;;;;;-2.00;91.72;97848.19;1760482;80;21122;-83
2022/01/20 06:46:04;;;;;;;0.85;0.60;;;;;;;-2.00;91.74;97863.54;1759577;80;21614;-82
2022/01/20 06:48:31;;;;;;;0.60;0.45;;;;;;;-2.02;91.98;97866.13;1760723;79;20978;-80
2022/01/20 06:50:57;;;;;;;5.17;0.50;;;;;;;-2.06;94.53;97887.11;1762851;80;21007;-80
2022/01/20 06:53:24;;;;;;;3.70;1.00;;;;;;;-2.25;97.16;97893.12;1760690;79;21020;-82
2022/01/20 06:55:50;;;;;;;1.60;0.60;;;;;;;-2.37;98.04;97909.22;1756628;80;21901;-82
2022/01/20 06:58:17;;;;;;;0.85;0.50;;;;;;;-2.48;98.16;97901.36;1746175;81;21511;-80
2022/01/20 07:00:44;;;;;;;1.32;0.42;;;;;;;-2.57;98.19;97891.38;1747404;80;21293;-82
2022/01/20 07:03:13;;;;;;;0.95;0.65;;;;;;;-2.62;98.08;97907.24;1748084;80;21127;-81
2022/01/20 07:05:40;;;;;;;2.40;0.75;;;;;;;-2.64;98.01;97916.65;1746559;80;20996;-81
2022/01/20 07:08:06;;;;;;;1.87;0.73;;;;;;;-2.64;97.74;97915.38;1743206;80;21888;-82
2022/01/20 07:10:40;;;;;;;1.45;0.70;;;;;;;-2.61;97.67;97922.96;1746625;80;21512;-82
2022/01/20 07:13:13;;;;;;;2.08;0.88;;;;;;;-2.57;97.59;97919.48;1764509;79;21018;-81
2022/01/20 07:15:40;;;;;;;4.25;0.93;;;;;;;-2.54;97.42;97918.13;1784221;79;21032;-81
2022/01/20 07:18:07;;;;;;;1.97;0.50;;;;;;;-2.50;97.12;97910.77;1787223;79;21076;-80
2022/01/20 07:20:36;;;;;;;2.67;0.80;;;;;;;-2.47;96.77;97923.47;1777045;78;21057;-85
2022/01/20 07:23:02;;;;;;;2.55;0.90;;;;;;;-2.42;96.72;97930.21;1783573;79;21581;-81
2022/01/20 07:25:29;;;;;;;1.98;1.02;;;;;;;-2.41;96.46;97926.77;1780963;78;21130;-81
2022/01/20 07:27:56;;;;;;;1.98;1.27;;;;;;;-2.39;96.62;97937.80;1775335;80;21074;-78
2022/01/20 07:30:23;;;;;;;2.72;1.25;;;;;;;-2.32;95.98;97941.91;1775502;79;21620;-79
2022/01/20 07:32:49;;;;;;;7.17;1.50;;;;;;;-2.25;96.34;97941.70;1778804;80;21083;-79
2022/01/20 07:35:16;;;;;;;11.18;1.30;;;;;;;-2.25;94.92;97967.71;1777532;80;20986;-81
2022/01/20 07:37:42;;;;;;;2.95;1.07;;;;;;;-2.26;94.83;97968.59;1781299;78;21080;-81
2022/01/20 07:40:10;;;;;;;2.02;0.70;;;;;;;-2.27;94.83;97963.06;1779353;79;21591;-82
2022/01/20 07:42:36;;;;;;;3.72;0.85;;;;;;;-2.26;94.23;97967.31;1779561;80;21050;-81
2022/01/20 07:45:05;;;;;;;2.90;0.90;;;;;;;-2.25;93.68;97974.09;1774536;79;21051;-81
2022/01/20 07:47:31;;;;;;;2.33;0.80;;;;;;;-2.22;93.76;97971.47;1780194;79;20993;-80
2022/01/20 07:49:58;;;;;;;0.97;0.60;;;;;;;-2.24;91.59;97986.03;1777541;79;21131;-81
2022/01/20 07:52:24;;;;;;;1.53;0.60;;;;;;;-2.24;90.58;97987.31;1775710;80;21574;-80
2022/01/20 07:54:51;;;;;;;4.72;0.90;;;;;;;-2.24;91.54;97980.91;1778710;78;21578;-79
2022/01/20 07:57:18;;;;;;;1.83;0.53;;;;;;;-2.19;91.63;97985.90;1781012;80;21091;-80
2022/01/20 07:59:45;;;;;;;3.83;0.98;;;;;;;-2.06;92.36;97981.73;1773084;78;21033;-79
2022/01/20 08:02:12;;;;;;;2.87;0.90;;;;;;;-2.08;90.21;97998.82;1782442;78;21030;-82
2022/01/20 08:04:38;;;;;;;0.60;0.40;;;;;;;-2.08;90.21;97998.82;1787741;78;21697;-88
2022/01/20 08:07:05;;;;;;;1.82;0.70;;;;;;;-2.13;90.50;97989.17;1790940;78;21049;-80
2022/01/20 08:09:32;;;;;;;2.70;1.02;;;;;;;-2.03;90.16;97994.89;1774960;79;21098;-80
2022/01/20 08:11:58;;;;;;;1.57;0.75;;;;;;;-1.91;90.47;98000.14;1784372;80;21000;-81
2022/01/20 08:14:25;;;;;;;1.60;0.70;;;;;;;-1.84;90.68;97987.61;1781521;78;21559;-76
2022/01/20 08:16:51;;;;;;;5.73;1.13;;;;;;;-1.79;90.53;98003.69;1774991;78;20926;-80
2022/01/20 08:19:18;;;;;;;2.10;0.78;;;;;;;-1.71;89.95;98001.78;1776872;78;20973;-82
2022/01/20 08:21:45;;;;;;;;;;;;;;;-1.72;89.08;97992.41;1782203;78;21162;-78
2022/01/20 08:24:12;;;;;;;1.25;0.60;;;;;;;-1.74;88.21;97994.15;1779026;79;20443;-83
2022/01/20 08:26:41;;;;;;;1.20;0.65;;;;;;;-1.82;87.60;98003.73;1776455;79;20875;-76
2022/01/20 08:29:09;;;;;;;1.50;0.53;;;;;;;-1.93;88.71;98006.59;1773320;79;20978;-76
2022/01/20 08:31:38;;;;;;;4.30;1.20;;;;;;;-2.04;87.97;97999.17;1776240;79;21222;-77
2022/01/20 08:34:05;;;;;;;1.82;0.82;;;;;;;-2.10;87.90;98006.13;1780105;79;21571;-77
2022/01/20 08:36:31;;;;;;;2.75;0.90;;;;;;;-1.93;88.33;97986.13;1778416;79;20942;-77
2022/01/20 08:38:58;;;;;;;1.92;0.62;;;;;;;-1.48;88.38;98004.19;1777386;79;21039;-78
2022/01/20 08:41:41;;;;;;;2.08;0.80;;;;;;;-1.39;82.56;97994.97;1772606;78;21041;-77
2022/01/20 08:44:05;;;;;;;1.67;0.62;;;;;;;-1.33;84.67;97992.23;1772796;78;21203;-78
2022/01/20 08:46:31;;;;;;;3.25;0.65;;;;;;;-1.20;84.08;97997.43;1777182;78;24345;-68
2022/01/20 08:49:00;;;;;;;2.77;0.87;;;;;;;-1.18;82.59;98009.73;1783111;78;21083;-67
2022/01/20 08:51:27;;;;;;;3.22;1.00;;;;;;;-1.17;80.56;98005.03;1778203;78;21063;-67
2022/01/20 08:53:55;;;;;;;1.80;1.07;;;;;;;-1.23;80.34;98009.05;1783082;78;21594;-67
2022/01/20 08:56:23;;;;;;;3.30;1.35;;;;;;;-1.24;80.09;98009.91;1770125;78;21009;-66
2022/01/20 08:58:49;;;;;;;;;;;;;;;-1.30;81.23;97999.83;1786131;78;21564;-66
2022/01/20 09:01:16;;;;;;;5.90;1.73;;;;;;;-1.35;81.38;97999.11;1777126;78;20493;-67
2022/01/20 09:03:47;;;;;;;3.80;1.80;;;;;;;-1.46;80.12;97994.72;1791166;78;20926;-67
2022/01/20 09:06:14;;;;;;;4.67;1.72;;;;;;;-1.31;82.04;97994.77;1777149;78;21057;-68
2022/01/20 09:08:52;;;;;;;2.40;1.03;;;;;;;-1.02;82.02;97996.52;1779219;78;21193;-67
2022/01/20 09:11:24;;;;;;;1.35;0.80;;;;;;;-0.96;80.18;97998.90;1775718;78;21211;-67
2022/01/20 09:16:45;;;;;;;2.47;0.70;;;;;;;-1.04;79.79;98001.67;1767165;78;21781;-67
2022/01/20 09:19:12;;;;;;;2.47;0.85;;;;;;;-1.11;78.03;98000.62;1771763;78;20945;-67
2022/01/20 09:21:39;;;;;;;2.20;0.98;;;;;;;-1.30;79.17;98015.20;1781034;78;22165;-66
2022/01/20 09:24:07;;;;;;;1.90;0.90;;;;;;;-1.40;79.47;98012.06;1782074;78;24330;-67
2022/01/20 09:26:36;;;;;;;2.27;0.90;;;;;;;-1.32;80.06;98001.59;1776514;78;21032;-68
2022/01/20 09:29:05;;;;;;;1.87;0.70;;;;;;;-1.30;78.80;98008.80;1774839;80;20958;-67
2022/01/20 09:31:37;;;;;;;1.37;0.50;;;;;;;-1.39;74.75;98000.09;1776060;78;20962;-67
2022/01/20 09:34:01;;;;;;;2.00;0.80;;;;;;;-1.48;75.69;98000.34;1636653;80;3805888;-67
2022/01/20 09:38:22;;;;;;;1.50;0.60;;;;;;;-1.54;74.39;98008.16;1656625;77;2778042;-67
2022/01/20 09:40:49;;;;;;;2.15;0.70;;;;;;;-1.47;76.06;98022.48;1688349;83;21043;-68
2022/01/20 09:43:17;;;;;;;2.70;0.78;;;;;;;-1.44;73.24;98024.97;1701768;84;22446;-68
2022/01/20 09:45:50;;;;;;;1.72;0.70;;;;;;;-1.44;74.34;98019.84;1700840;82;21704;-68
2022/01/20 09:48:18;;;;;;;2.90;0.75;;;;;;;-1.45;76.49;98007.94;1702385;82;21104;-68
2022/01/20 09:50:52;;;;;;;2.55;0.50;;;;;;;-1.39;76.29;98006.48;1688639;84;21106;-67
2022/01/20 09:53:21;;;;;;;2.00;0.82;;;;;;;-1.41;73.97;98047.92;1704116;84;21065;-66
2022/01/20 09:55:48;;;;;;;1.87;0.70;;;;;;;-1.47;74.56;98031.45;1683836;83;21002;-65
2022/01/20 09:58:16;;;;;;;3.30;0.93;;;;;;;-1.45;75.84;98029.70;1694254;82;21076;-67
2022/01/20 10:00:46;;;;;;;4.50;1.30;;;;;;;-1.41;76.57;98030.00;1683852;83;20964;-70
2022/01/20 10:03:17;;;;;;;1.77;1.00;;;;;;;-1.34;75.59;98046.90;1691437;83;21523;-66
2022/01/20 10:05:51;;;;;;;5.75;0.72;;;;;;;-1.33;74.65;98035.77;1692746;84;21133;-67
2022/01/20 10:08:27;;;;;;;3.92;0.80;;;;;;;-1.22;74.12;98036.32;1686214;84;21050;-66
2022/01/20 10:11:09;;;;;;;1.40;0.68;;;;;;;-1.22;73.64;98044.45;1698314;84;21081;-68
2022/01/20 10:13:40;;;;;;;2.77;1.07;;;;;;;-1.42;69.15;98034.29;1687612;83;20993;-65
2022/01/20 10:16:11;;;;;;;2.37;0.95;;;;;;;-1.10;73.40;98041.99;1689264;83;21678;-66
2022/01/20 10:18:57;;;;;;;5.08;1.00;;;;;;;-0.79;74.19;98035.13;1697866;84;21063;-67
2022/01/20 10:21:31;;;;;;;8.98;0.85;;;;;;;-0.17;75.24;98034.59;1683862;83;22412;-67
2022/01/20 10:24:10;;;;;;;2.45;0.70;;;;;;;-0.18;69.06;98036.77;1684771;83;21090;-69
2022/01/20 10:26:39;;;;;;;2.37;0.80;;;;;;;-0.68;72.47;98045.91;1680879;83;21025;-66
2022/01/20 10:29:16;;;;;;;2.52;0.70;;;;;;;-1.08;72.33;98055.61;1702984;84;21058;-67
2022/01/20 10:31:51;;;;;;;2.80;0.80;;;;;;;-1.36;71.04;98051.21;1683309;83;21028;-68
2022/01/20 10:34:37;;;;;;;2.33;0.80;;;;;;;-1.44;72.56;98045.45;1688086;83;21148;-67
2022/01/20 10:37:26;;;;;;;2.55;0.80;;;;;;;-1.44;72.64;98050.56;1661781;85;21147;-67
2022/01/20 10:39:57;;;;;;;1.92;0.85;;;;;;;-1.35;72.70;98043.47;1699934;84;21018;-69
2022/01/20 10:42:26;;;;;;;1.52;0.57;;;;;;;-1.48;71.94;98036.18;1681316;83;21002;-68
2022/01/20 10:44:56;;;;;;;2.25;0.65;;;;;;;-1.64;72.61;98067.27;1684085;83;21048;-68
2022/01/20 10:47:27;;;;;;;3.52;1.00;;;;;;;-1.97;73.96;98091.09;1698669;84;21055;-67
2022/01/20 10:49:55;;;;;;;1.87;0.80;;;;;;;-2.27;75.38;98075.55;1681351;83;21072;-67
2022/01/20 10:52:35;;;;;;;4.67;0.72;;;;;;;-2.38;76.40;98064.72;1696763;84;22714;-66
2022/01/20 10:55:03;;;;;;;2.72;0.80;;;;;;;-2.37;76.53;98061.31;1682423;83;21031;-66
2022/01/20 10:57:33;;;;;;;1.77;0.88;;;;;;;-2.33;76.67;98045.85;1664111;85;21105;-67
2022/01/20 11:00:11;;;;;;;2.40;1.10;;;;;;;-2.17;76.46;98059.14;1661339;85;21483;-68
2022/01/20 11:02:38;;;;;;;8.30;1.05;;;;;;;-2.10;76.45;98037.68;1672112;84;21117;-67
2022/01/20 11:05:06;;;;;;;1.15;0.78;;;;;;;-2.13;75.64;98040.31;1646605;86;21075;-67
2022/01/20 11:07:37;;;;;;;2.47;1.10;;;;;;;-2.12;75.72;98041.98;1676336;84;20916;-71
2022/01/20 11:10:05;;;;;;;3.17;0.98;;;;;;;-1.90;76.33;98049.16;1689759;84;21655;-70
2022/01/20 11:12:34;;;;;;;1.40;0.88;;;;;;;-1.56;75.95;98032.97;1678224;84;21096;-71
2022/01/20 11:15:04;;;;;;;3.90;0.98;;;;;;;-1.37;75.08;98036.73;1663902;84;21100;-67
2022/01/20 11:17:36;;;;;;;5.42;0.60;;;;;;;-0.93;76.29;98032.11;1661375;84;21068;-68
2022/01/20 11:20:11;;;;;;;1.82;0.65;;;;;;;-0.56;76.08;98046.44;1682503;83;21012;-67
2022/01/20 11:22:42;;;;;;;1.30;0.72;;;;;;;-0.52;75.54;98037.78;1677089;84;21129;-67
2022/01/20 11:25:10;;;;;;;2.17;0.90;;;;;;;-0.70;73.92;98046.41;1670661;84;21081;-68
2022/01/20 11:27:41;;;;;;;7.28;0.90;;;;;;;-0.98;73.26;98044.20;1667554;84;20966;-67
2022/01/20 11:30:26;;;;;;;1.95;0.70;;;;;;;-1.13;74.38;98070.64;1676586;82;21030;-67
2022/01/20 11:33:08;;;;;;;2.95;0.60;;;;;;;-1.44;75.96;98076.16;1684901;83;20948;-67
2022/01/20 11:35:39;;;;;;;1.95;0.80;;;;;;;-1.57;75.57;98062.82;1671868;84;21065;-67
2022/01/20 11:38:07;;;;;;;1.77;0.70;;;;;;;-1.67;74.47;98066.51;1669055;84;21169;-67
2022/01/20 11:40:34;;;;;;;4.08;0.70;;;;;;;-1.86;74.19;98073.78;1670714;84;21048;-67
2022/01/20 11:43:05;;;;;;;;;;;;;;;-1.77;75.31;98068.88;1694917;84;20970;-67
2022/01/20 11:45:39;;;;;;;1.22;0.65;;;;;;;-1.69;75.24;98075.48;1683388;84;20152;-67
2022/01/20 11:48:22;;;;;;;3.75;0.80;;;;;;;-1.86;74.63;98087.84;1686654;84;21528;-68
2022/01/20 11:51:05;;;;;;;4.50;0.62;;;;;;;-2.09;74.70;98094.77;1658589;86;21103;-67
2022/01/20 11:53:40;;;;;;;4.10;0.90;;;;;;;-2.26;75.41;98100.27;1691448;84;21546;-67
2022/01/20 11:56:02;;;;;;;1.40;0.80;;;;;;;-2.56;77.29;98097.91;1685055;83;20995;-67
2022/01/20 11:58:28;;;;;;;2.33;0.90;;;;;;;-2.59;78.42;98093.70;1689227;84;20975;-66
2022/01/20 12:01:08;;;;;;;6.75;1.20;;;;;;;-2.63;78.85;98093.38;1645664;85;21118;-66
2022/01/20 12:03:37;;;;;;;1.22;1.00;;;;;;;-2.68;78.88;98091.34;1694283;84;21736;-67
2022/01/20 12:06:13;;;;;;;4.67;0.93;;;;;;;-2.74;79.28;98108.08;1688254;83;21046;-66
2022/01/20 12:08:57;;;;;;;1.22;0.60;;;;;;;-2.93;81.60;98110.97;1684080;83;21049;-68
2022/01/20 12:11:44;;;;;;;2.15;0.80;;;;;;;-3.14;82.74;98108.80;1689415;83;21419;-69
2022/01/20 12:14:14;;;;;;;1.27;0.60;;;;;;;-3.35;84.78;98098.99;1686625;84;20984;-69
2022/01/20 12:16:41;;;;;;;2.15;0.98;;;;;;;-3.43;85.47;98102.50;1650718;85;21919;-68
2022/01/20 12:19:09;;;;;;;;;;;;;;;-3.44;85.75;98111.04;1674759;84;20939;-68
2022/01/20 12:21:38;;;;;;;5.40;1.67;;;;;;;-3.42;85.97;98114.41;1690209;84;20159;-67
2022/01/20 12:24:06;;;;;;;2.15;1.12;;;;;;;-3.34;85.62;98112.15;1690395;84;21054;-67
2022/01/20 12:26:35;;;;;;;3.90;1.87;;;;;;;-3.27;85.75;98108.20;1680785;84;21087;-67
2022/01/20 12:29:10;;;;;;;4.70;2.00;;;;;;;-3.19;85.78;98102.96;1671355;84;21193;-67
2022/01/20 12:31:54;;;;;;;2.83;1.50;;;;;;;-3.10;85.81;98105.34;1667918;83;21002;-68
2022/01/20 12:34:21;;;;;;;3.00;1.67;;;;;;;-2.96;85.34;98106.36;1686272;84;20972;-67
2022/01/20 12:36:54;;;;;;;2.58;1.12;;;;;;;-2.81;85.08;98115.44;1676053;84;21055;-67
2022/01/20 12:39:32;;;;;;;4.25;1.67;;;;;;;-2.61;84.53;98121.43;1655457;85;21018;-68
2022/01/20 12:42:07;;;;;;;3.85;1.15;;;;;;;-2.41;83.92;98128.69;1694449;84;21117;-67
2022/01/20 12:47:32;;;;;;;3.72;1.02;;;;;;;-2.30;82.92;98126.75;1650273;86;20986;-68
2022/01/20 12:50:01;;;;;;;4.75;1.30;;;;;;;-2.35;82.60;98133.67;1636076;86;21056;-68
2022/01/20 12:52:28;;;;;;;1.95;1.10;;;;;;;-2.34;82.34;98130.26;1633060;86;20982;-67